sensor_id;sensor_type;location;lat;lon;timestamp;temperature;humidity
23703;DHT22;12030;50.376;8.762;2022-12-26T00:01:18;10.90;99.90
23703;DHT22;12030;50.376;8.762;2022-12-26T00:03:44;10.90;99.90
23703;DHT22;12030;50.376;8.762;2022-12-26T00:06:15;10.80;99.90
23703;DHT22;12030;50.376;8.762;2022-12-26T00:08:42;10.90;99.90
23703;DHT22;12030;50.376;8.762;2022-12-26T00:11:08;10.90;99.90
23703;DHT22;12030;50.376;8.762;2022-12-26T00:13:33;10.80;99.90
23703;DHT22;12030;50.376;8.762;2022-12-26T00:15:59;10.80;99.90
23703;DHT22;12030;50.376;8.762;2022-12-26T00:18:24;10.80;99.90
23703;DHT22;12030;50.376;8.762;2022-12-26T00:20:50;10.90;99.90
23703;DHT22;12030;50.376;8.762;2022-12-26T00:23:15;10.90;99.90
23703;DHT22;12030;50.376;8.762;2022-12-26T00:25:41;10.90;99.90
23703;DHT22;12030;50.376;8.762;2022-12-26T00:28:06;10.90;99.90
23703;DHT22;12030;50.376;8.762;2022-12-26T00:30:32;10.80;99.90
23703;DHT22;12030;50.376;8.762;2022-12-26T00:32:57;10.90;99.90
23703;DHT22;12030;50.376;8.762;2022-12-26T00:35:23;10.90;99.90
23703;DHT22;12030;50.376;8.762;2022-12-26T00:37:48;10.90;99.90
23703;DHT22;12030;50.376;8.762;2022-12-26T00:40:14;10.90;99.90
23703;DHT22;12030;50.376;8.762;2022-12-26T00:42:39;10.90;99.90
23703;DHT22;12030;50.376;8.762;2022-12-26T00:45:05;10.90;99.90
23703;DHT22;12030;50.376;8.762;2022-12-26T00:47:31;10.80;99.90
23703;DHT22;12030;50.376;8.762;2022-12-26T00:49:56;10.90;99.90
23703;DHT22;12030;50.376;8.762;2022-12-26T00:52:22;10.90;99.90
23703;DHT22;12030;50.376;8.762;2022-12-26T00:54:47;10.90;99.90
23703;DHT22;12030;50.376;8.762;2022-12-26T00:57:13;10.90;99.90
23703;DHT22;12030;50.376;8.762;2022-12-26T00:59:38;10.90;99.90
23703;DHT22;12030;50.376;8.762;2022-12-26T01:02:04;10.90;99.90
23703;DHT22;12030;50.376;8.762;2022-12-26T01:04:49;10.90;99.90
23703;DHT22;12030;50.376;8.762;2022-12-26T01:07:15;10.80;99.90
23703;DHT22;12030;50.376;8.762;2022-12-26T01:09:40;10.90;99.90
23703;DHT22;12030;50.376;8.762;2022-12-26T01:12:06;10.90;99.90
23703;DHT22;12030;50.376;8.762;2022-12-26T01:14:32;10.90;99.90
23703;DHT22;12030;50.376;8.762;2022-12-26T01:16:58;10.90;99.90
23703;DHT22;12030;50.376;8.762;2022-12-26T01:19:23;10.90;99.90
23703;DHT22;12030;50.376;8.762;2022-12-26T01:21:49;10.90;99.90
23703;DHT22;12030;50.376;8.762;2022-12-26T01:24:14;10.90;99.90
23703;DHT22;12030;50.376;8.762;2022-12-26T01:26:40;10.80;99.90
23703;DHT22;12030;50.376;8.762;2022-12-26T01:29:05;10.80;99.90
23703;DHT22;12030;50.376;8.762;2022-12-26T01:31:31;10.80;99.90
23703;DHT22;12030;50.376;8.762;2022-12-26T01:33:56;10.70;99.90
23703;DHT22;12030;50.376;8.762;2022-12-26T01:36:22;10.80;99.90
23703;DHT22;12030;50.376;8.762;2022-12-26T01:38:48;10.70;99.90
23703;DHT22;12030;50.376;8.762;2022-12-26T01:41:13;10.70;99.90
23703;DHT22;12030;50.376;8.762;2022-12-26T01:46:16;10.70;99.90
23703;DHT22;12030;50.376;8.762;2022-12-26T01:48:43;10.60;99.90
23703;DHT22;12030;50.376;8.762;2022-12-26T01:51:10;10.70;99.90
23703;DHT22;12030;50.376;8.762;2022-12-26T01:53:45;10.70;99.90
23703;DHT22;12030;50.376;8.762;2022-12-26T01:56:15;10.60;99.90
23703;DHT22;12030;50.376;8.762;2022-12-26T01:58:50;10.60;99.90
23703;DHT22;12030;50.376;8.762;2022-12-26T02:01:18;10.60;99.90
23703;DHT22;12030;50.376;8.762;2022-12-26T02:03:45;10.60;99.90
23703;DHT22;12030;50.376;8.762;2022-12-26T02:06:31;10.60;99.90
23703;DHT22;12030;50.376;8.762;2022-12-26T02:08:57;10.70;99.90
23703;DHT22;12030;50.376;8.762;2022-12-26T02:11:32;10.70;99.90
23703;DHT22;12030;50.376;8.762;2022-12-26T02:13:59;10.80;99.90
23703;DHT22;12030;50.376;8.762;2022-12-26T02:16:26;10.80;99.90
23703;DHT22;12030;50.376;8.762;2022-12-26T02:18:51;10.80;99.90
23703;DHT22;12030;50.376;8.762;2022-12-26T02:24:24;11.00;99.90
23703;DHT22;12030;50.376;8.762;2022-12-26T02:27:15;11.00;99.90
23703;DHT22;12030;50.376;8.762;2022-12-26T02:30:06;11.00;99.90
23703;DHT22;12030;50.376;8.762;2022-12-26T02:35:20;11.10;99.90
23703;DHT22;12030;50.376;8.762;2022-12-26T02:38:27;11.10;99.90
23703;DHT22;12030;50.376;8.762;2022-12-26T02:44:03;11.10;99.90
23703;DHT22;12030;50.376;8.762;2022-12-26T02:47:05;11.10;99.90
23703;DHT22;12030;50.376;8.762;2022-12-26T02:49:51;11.10;99.90
23703;DHT22;12030;50.376;8.762;2022-12-26T02:55:43;11.20;99.90
23703;DHT22;12030;50.376;8.762;2022-12-26T02:58:35;11.20;99.90
23703;DHT22;12030;50.376;8.762;2022-12-26T03:01:37;11.20;99.90
23703;DHT22;12030;50.376;8.762;2022-12-26T03:04:23;11.20;99.90
23703;DHT22;12030;50.376;8.762;2022-12-26T03:07:19;11.20;99.90
23703;DHT22;12030;50.376;8.762;2022-12-26T03:10:19;11.20;99.90
23703;DHT22;12030;50.376;8.762;2022-12-26T03:13:13;11.20;99.90
23703;DHT22;12030;50.376;8.762;2022-12-26T03:15:54;11.20;99.90
23703;DHT22;12030;50.376;8.762;2022-12-26T03:18:43;11.20;99.90
23703;DHT22;12030;50.376;8.762;2022-12-26T03:21:11;11.20;99.90
23703;DHT22;12030;50.376;8.762;2022-12-26T03:23:39;11.20;99.90
23703;DHT22;12030;50.376;8.762;2022-12-26T03:26:14;11.20;99.90
23703;DHT22;12030;50.376;8.762;2022-12-26T03:28:59;11.20;99.90
23703;DHT22;12030;50.376;8.762;2022-12-26T03:31:44;11.20;99.90
23703;DHT22;12030;50.376;8.762;2022-12-26T03:34:09;11.10;99.90
23703;DHT22;12030;50.376;8.762;2022-12-26T03:43:01;11.10;99.90
23703;DHT22;12030;50.376;8.762;2022-12-26T03:58:27;11.10;99.90
23703;DHT22;12030;50.376;8.762;2022-12-26T04:01:19;11.10;99.90
23703;DHT22;12030;50.376;8.762;2022-12-26T04:04:06;11.00;99.90
23703;DHT22;12030;50.376;8.762;2022-12-26T04:06:58;10.90;99.90
23703;DHT22;12030;50.376;8.762;2022-12-26T04:09:50;10.80;99.90
23703;DHT22;12030;50.376;8.762;2022-12-26T04:12:36;10.90;99.90
23703;DHT22;12030;50.376;8.762;2022-12-26T04:15:59;10.80;99.90
23703;DHT22;12030;50.376;8.762;2022-12-26T04:18:49;10.70;99.90
23703;DHT22;12030;50.376;8.762;2022-12-26T04:24:32;10.70;99.90
23703;DHT22;12030;50.376;8.762;2022-12-26T04:27:20;10.70;99.90
23703;DHT22;12030;50.376;8.762;2022-12-26T04:30:07;10.60;99.90
23703;DHT22;12030;50.376;8.762;2022-12-26T04:32:54;10.60;99.90
23703;DHT22;12030;50.376;8.762;2022-12-26T04:35:47;10.60;99.90
23703;DHT22;12030;50.376;8.762;2022-12-26T04:38:40;10.50;99.90
23703;DHT22;12030;50.376;8.762;2022-12-26T04:41:27;10.50;99.90
23703;DHT22;12030;50.376;8.762;2022-12-26T04:44:12;10.50;99.90
23703;DHT22;12030;50.376;8.762;2022-12-26T04:46:40;10.50;99.90
23703;DHT22;12030;50.376;8.762;2022-12-26T04:49:10;10.50;99.90
23703;DHT22;12030;50.376;8.762;2022-12-26T04:51:56;10.40;99.90
23703;DHT22;12030;50.376;8.762;2022-12-26T04:54:22;10.40;99.90
23703;DHT22;12030;50.376;8.762;2022-12-26T04:56:47;10.40;99.90
23703;DHT22;12030;50.376;8.762;2022-12-26T04:59:13;10.40;99.90
23703;DHT22;12030;50.376;8.762;2022-12-26T05:01:39;10.40;99.90
23703;DHT22;12030;50.376;8.762;2022-12-26T05:04:23;10.30;99.90
23703;DHT22;12030;50.376;8.762;2022-12-26T05:07:15;10.30;99.90
23703;DHT22;12030;50.376;8.762;2022-12-26T05:10:01;10.30;99.90
23703;DHT22;12030;50.376;8.762;2022-12-26T05:12:27;10.30;99.90
23703;DHT22;12030;50.376;8.762;2022-12-26T05:14:53;10.40;99.90
23703;DHT22;12030;50.376;8.762;2022-12-26T05:17:19;10.30;99.90
23703;DHT22;12030;50.376;8.762;2022-12-26T05:20:03;10.30;99.90
23703;DHT22;12030;50.376;8.762;2022-12-26T05:22:48;10.30;99.90
23703;DHT22;12030;50.376;8.762;2022-12-26T05:25:34;10.40;99.90
23703;DHT22;12030;50.376;8.762;2022-12-26T05:28:20;10.40;99.90
23703;DHT22;12030;50.376;8.762;2022-12-26T05:31:05;10.50;99.90
23703;DHT22;12030;50.376;8.762;2022-12-26T05:33:30;10.40;99.90
23703;DHT22;12030;50.376;8.762;2022-12-26T05:36:17;10.40;99.90
23703;DHT22;12030;50.376;8.762;2022-12-26T05:38:43;10.50;99.90
23703;DHT22;12030;50.376;8.762;2022-12-26T05:41:09;10.50;99.90
23703;DHT22;12030;50.376;8.762;2022-12-26T05:43:34;10.50;99.90
23703;DHT22;12030;50.376;8.762;2022-12-26T05:46:00;10.50;99.90
23703;DHT22;12030;50.376;8.762;2022-12-26T05:48:26;10.50;99.90
23703;DHT22;12030;50.376;8.762;2022-12-26T05:50:51;10.50;99.90
23703;DHT22;12030;50.376;8.762;2022-12-26T05:53:17;10.60;99.90
23703;DHT22;12030;50.376;8.762;2022-12-26T05:55:43;10.60;99.90
23703;DHT22;12030;50.376;8.762;2022-12-26T05:58:08;10.70;99.90
23703;DHT22;12030;50.376;8.762;2022-12-26T06:00:34;10.70;99.90
23703;DHT22;12030;50.376;8.762;2022-12-26T06:03:00;10.80;99.90
23703;DHT22;12030;50.376;8.762;2022-12-26T06:05:27;10.90;99.90
23703;DHT22;12030;50.376;8.762;2022-12-26T06:07:52;10.90;99.90
23703;DHT22;12030;50.376;8.762;2022-12-26T06:10:18;11.00;99.90
23703;DHT22;12030;50.376;8.762;2022-12-26T06:12:44;11.00;99.90
23703;DHT22;12030;50.376;8.762;2022-12-26T06:15:09;11.00;99.90
23703;DHT22;12030;50.376;8.762;2022-12-26T06:17:37;11.10;99.90
23703;DHT22;12030;50.376;8.762;2022-12-26T06:20:02;11.10;99.90
23703;DHT22;12030;50.376;8.762;2022-12-26T06:22:28;11.10;99.90
23703;DHT22;12030;50.376;8.762;2022-12-26T06:24:54;11.20;99.90
23703;DHT22;12030;50.376;8.762;2022-12-26T06:27:20;11.30;99.90
23703;DHT22;12030;50.376;8.762;2022-12-26T06:29:45;11.30;99.90
23703;DHT22;12030;50.376;8.762;2022-12-26T06:32:11;11.30;99.90
23703;DHT22;12030;50.376;8.762;2022-12-26T06:34:36;11.40;99.90
23703;DHT22;12030;50.376;8.762;2022-12-26T06:37:02;11.40;99.90
23703;DHT22;12030;50.376;8.762;2022-12-26T06:39:27;11.40;99.90
23703;DHT22;12030;50.376;8.762;2022-12-26T06:41:53;11.40;99.90
23703;DHT22;12030;50.376;8.762;2022-12-26T06:44:18;11.40;99.90
23703;DHT22;12030;50.376;8.762;2022-12-26T06:46:44;11.40;99.90
23703;DHT22;12030;50.376;8.762;2022-12-26T06:49:10;11.40;99.90
23703;DHT22;12030;50.376;8.762;2022-12-26T06:51:35;11.40;99.90
23703;DHT22;12030;50.376;8.762;2022-12-26T06:54:01;11.40;99.90
23703;DHT22;12030;50.376;8.762;2022-12-26T06:56:28;11.40;99.90
23703;DHT22;12030;50.376;8.762;2022-12-26T06:58:59;11.40;99.90
23703;DHT22;12030;50.376;8.762;2022-12-26T07:01:26;11.40;99.90
23703;DHT22;12030;50.376;8.762;2022-12-26T07:03:53;11.40;99.90
23703;DHT22;12030;50.376;8.762;2022-12-26T07:06:36;11.40;99.90
23703;DHT22;12030;50.376;8.762;2022-12-26T07:09:04;11.40;99.90
23703;DHT22;12030;50.376;8.762;2022-12-26T07:11:32;11.40;99.90
23703;DHT22;12030;50.376;8.762;2022-12-26T07:13:58;11.40;99.90
23703;DHT22;12030;50.376;8.762;2022-12-26T07:16:24;11.40;99.90
23703;DHT22;12030;50.376;8.762;2022-12-26T07:18:54;11.40;99.90
23703;DHT22;12030;50.376;8.762;2022-12-26T07:21:20;11.40;99.90
23703;DHT22;12030;50.376;8.762;2022-12-26T07:23:46;11.40;99.90
23703;DHT22;12030;50.376;8.762;2022-12-26T07:26:12;11.30;99.90
23703;DHT22;12030;50.376;8.762;2022-12-26T07:28:38;11.30;99.90
23703;DHT22;12030;50.376;8.762;2022-12-26T07:31:04;11.30;99.90
23703;DHT22;12030;50.376;8.762;2022-12-26T07:33:30;11.20;99.90
23703;DHT22;12030;50.376;8.762;2022-12-26T07:36:00;11.10;99.90
23703;DHT22;12030;50.376;8.762;2022-12-26T07:38:26;11.10;99.90
23703;DHT22;12030;50.376;8.762;2022-12-26T07:40:55;11.10;99.90
23703;DHT22;12030;50.376;8.762;2022-12-26T07:43:22;11.10;99.90
23703;DHT22;12030;50.376;8.762;2022-12-26T07:45:48;11.10;99.90
23703;DHT22;12030;50.376;8.762;2022-12-26T07:48:13;11.10;99.90
23703;DHT22;12030;50.376;8.762;2022-12-26T07:50:39;11.10;99.90
23703;DHT22;12030;50.376;8.762;2022-12-26T07:53:04;11.10;99.90
23703;DHT22;12030;50.376;8.762;2022-12-26T07:55:30;11.10;99.90
23703;DHT22;12030;50.376;8.762;2022-12-26T07:57:55;11.10;99.90
23703;DHT22;12030;50.376;8.762;2022-12-26T08:00:21;11.10;99.90
23703;DHT22;12030;50.376;8.762;2022-12-26T08:02:48;11.10;99.90
23703;DHT22;12030;50.376;8.762;2022-12-26T08:05:14;11.10;99.90
23703;DHT22;12030;50.376;8.762;2022-12-26T08:07:40;11.10;99.90
23703;DHT22;12030;50.376;8.762;2022-12-26T08:10:06;11.10;99.90
23703;DHT22;12030;50.376;8.762;2022-12-26T08:12:32;11.10;99.90
23703;DHT22;12030;50.376;8.762;2022-12-26T08:14:58;11.10;99.90
23703;DHT22;12030;50.376;8.762;2022-12-26T08:17:23;11.20;99.90
23703;DHT22;12030;50.376;8.762;2022-12-26T08:19:49;11.10;99.90
23703;DHT22;12030;50.376;8.762;2022-12-26T08:22:15;11.10;99.90
23703;DHT22;12030;50.376;8.762;2022-12-26T08:24:40;11.10;99.90
23703;DHT22;12030;50.376;8.762;2022-12-26T08:27:06;11.10;99.90
23703;DHT22;12030;50.376;8.762;2022-12-26T08:29:31;11.00;99.90
23703;DHT22;12030;50.376;8.762;2022-12-26T08:31:57;11.00;99.90
23703;DHT22;12030;50.376;8.762;2022-12-26T08:34:22;11.00;99.90
23703;DHT22;12030;50.376;8.762;2022-12-26T08:36:51;11.00;99.90
23703;DHT22;12030;50.376;8.762;2022-12-26T08:39:17;11.00;99.90
23703;DHT22;12030;50.376;8.762;2022-12-26T08:41:43;11.00;99.90
23703;DHT22;12030;50.376;8.762;2022-12-26T08:44:09;11.00;99.90
23703;DHT22;12030;50.376;8.762;2022-12-26T08:46:37;11.00;99.90
23703;DHT22;12030;50.376;8.762;2022-12-26T08:49:02;11.00;99.90
23703;DHT22;12030;50.376;8.762;2022-12-26T08:51:28;11.00;99.90
23703;DHT22;12030;50.376;8.762;2022-12-26T08:53:54;11.00;99.90
23703;DHT22;12030;50.376;8.762;2022-12-26T08:56:22;11.10;99.90
23703;DHT22;12030;50.376;8.762;2022-12-26T08:58:48;11.20;99.90
23703;DHT22;12030;50.376;8.762;2022-12-26T09:01:16;11.20;99.90
23703;DHT22;12030;50.376;8.762;2022-12-26T09:03:42;11.20;99.90
23703;DHT22;12030;50.376;8.762;2022-12-26T09:06:09;11.20;99.90
23703;DHT22;12030;50.376;8.762;2022-12-26T09:08:36;11.20;99.90
23703;DHT22;12030;50.376;8.762;2022-12-26T09:11:23;11.20;99.90
23703;DHT22;12030;50.376;8.762;2022-12-26T09:13:52;11.20;99.90
23703;DHT22;12030;50.376;8.762;2022-12-26T09:16:21;11.10;99.90
23703;DHT22;12030;50.376;8.762;2022-12-26T09:18:47;11.20;99.90
23703;DHT22;12030;50.376;8.762;2022-12-26T09:21:16;11.10;99.90
23703;DHT22;12030;50.376;8.762;2022-12-26T09:23:42;11.10;99.90
23703;DHT22;12030;50.376;8.762;2022-12-26T09:26:10;11.20;99.90
23703;DHT22;12030;50.376;8.762;2022-12-26T09:28:36;11.10;99.90
23703;DHT22;12030;50.376;8.762;2022-12-26T09:31:04;11.10;99.90
23703;DHT22;12030;50.376;8.762;2022-12-26T09:33:31;11.20;99.90
23703;DHT22;12030;50.376;8.762;2022-12-26T09:35:58;11.10;99.90
23703;DHT22;12030;50.376;8.762;2022-12-26T09:38:24;11.20;99.90
23703;DHT22;12030;50.376;8.762;2022-12-26T09:44:07;11.20;99.90
23703;DHT22;12030;50.376;8.762;2022-12-26T09:49:22;11.30;99.90
23703;DHT22;12030;50.376;8.762;2022-12-26T09:51:55;11.20;99.90
23703;DHT22;12030;50.376;8.762;2022-12-26T09:54:33;11.30;99.90
23703;DHT22;12030;50.376;8.762;2022-12-26T09:57:03;11.40;99.90
23703;DHT22;12030;50.376;8.762;2022-12-26T09:59:36;11.40;99.90
23703;DHT22;12030;50.376;8.762;2022-12-26T10:02:17;11.30;99.90
23703;DHT22;12030;50.376;8.762;2022-12-26T10:04:43;11.40;99.90
23703;DHT22;12030;50.376;8.762;2022-12-26T10:07:28;11.40;99.90
23703;DHT22;12030;50.376;8.762;2022-12-26T10:10:19;11.40;99.90
23703;DHT22;12030;50.376;8.762;2022-12-26T10:16:01;11.50;99.90
23703;DHT22;12030;50.376;8.762;2022-12-26T10:24:17;11.50;99.90
23703;DHT22;12030;50.376;8.762;2022-12-26T10:26:48;11.40;99.90
23703;DHT22;12030;50.376;8.762;2022-12-26T10:29:37;11.50;99.90
23703;DHT22;12030;50.376;8.762;2022-12-26T10:32:09;11.50;99.90
23703;DHT22;12030;50.376;8.762;2022-12-26T10:34:40;11.60;99.90
23703;DHT22;12030;50.376;8.762;2022-12-26T10:42:43;11.70;99.90
23703;DHT22;12030;50.376;8.762;2022-12-26T10:48:00;11.80;99.90
23703;DHT22;12030;50.376;8.762;2022-12-26T10:50:31;11.80;99.90
23703;DHT22;12030;50.376;8.762;2022-12-26T10:52:58;11.90;99.90
23703;DHT22;12030;50.376;8.762;2022-12-26T10:55:29;11.80;99.90
23703;DHT22;12030;50.376;8.762;2022-12-26T10:58:03;11.80;99.90
23703;DHT22;12030;50.376;8.762;2022-12-26T11:00:30;11.80;99.90
23703;DHT22;12030;50.376;8.762;2022-12-26T11:03:07;11.80;99.90
23703;DHT22;12030;50.376;8.762;2022-12-26T11:05:39;11.90;99.90
23703;DHT22;12030;50.376;8.762;2022-12-26T11:08:29;11.80;99.90
23703;DHT22;12030;50.376;8.762;2022-12-26T11:11:11;11.80;99.90
23703;DHT22;12030;50.376;8.762;2022-12-26T11:13:52;11.90;99.90
23703;DHT22;12030;50.376;8.762;2022-12-26T11:16:33;11.90;99.90
23703;DHT22;12030;50.376;8.762;2022-12-26T11:19:00;11.90;99.90
23703;DHT22;12030;50.376;8.762;2022-12-26T11:21:28;11.90;99.90
23703;DHT22;12030;50.376;8.762;2022-12-26T11:26:38;11.90;99.90
23703;DHT22;12030;50.376;8.762;2022-12-26T11:29:15;11.90;99.90
23703;DHT22;12030;50.376;8.762;2022-12-26T11:31:48;11.90;99.90
23703;DHT22;12030;50.376;8.762;2022-12-26T11:34:19;11.90;99.90
23703;DHT22;12030;50.376;8.762;2022-12-26T11:36:49;12.00;99.90
23703;DHT22;12030;50.376;8.762;2022-12-26T11:39:23;12.00;99.90
23703;DHT22;12030;50.376;8.762;2022-12-26T11:41:50;12.00;99.90
23703;DHT22;12030;50.376;8.762;2022-12-26T11:44:18;12.00;99.90
23703;DHT22;12030;50.376;8.762;2022-12-26T11:47:08;12.10;99.90
23703;DHT22;12030;50.376;8.762;2022-12-26T11:49:45;12.10;99.90
23703;DHT22;12030;50.376;8.762;2022-12-26T12:00:38;12.20;99.90
23703;DHT22;12030;50.376;8.762;2022-12-26T12:03:13;12.10;99.90
23703;DHT22;12030;50.376;8.762;2022-12-26T12:14:01;12.20;99.90
23703;DHT22;12030;50.376;8.762;2022-12-26T12:19:37;12.30;99.90
23703;DHT22;12030;50.376;8.762;2022-12-26T12:22:33;12.30;99.90
23703;DHT22;12030;50.376;8.762;2022-12-26T12:39:06;12.30;99.90
23703;DHT22;12030;50.376;8.762;2022-12-26T12:41:43;12.30;99.90
23703;DHT22;12030;50.376;8.762;2022-12-26T12:44:21;12.30;99.90
23703;DHT22;12030;50.376;8.762;2022-12-26T12:46:53;12.20;99.90
23703;DHT22;12030;50.376;8.762;2022-12-26T12:52:51;12.30;99.90
23703;DHT22;12030;50.376;8.762;2022-12-26T12:55:46;12.20;99.90
23703;DHT22;12030;50.376;8.762;2022-12-26T12:58:21;12.10;99.90
23703;DHT22;12030;50.376;8.762;2022-12-26T13:00:55;12.10;99.90
23703;DHT22;12030;50.376;8.762;2022-12-26T13:06:01;11.90;99.90
23703;DHT22;12030;50.376;8.762;2022-12-26T13:11:19;11.90;99.90
23703;DHT22;12030;50.376;8.762;2022-12-26T13:14:04;11.90;99.90
23703;DHT22;12030;50.376;8.762;2022-12-26T13:16:38;11.80;99.90
23703;DHT22;12030;50.376;8.762;2022-12-26T13:19:50;11.80;99.90
23703;DHT22;12030;50.376;8.762;2022-12-26T13:22:25;11.80;99.90
23703;DHT22;12030;50.376;8.762;2022-12-26T13:24:58;11.80;99.90
23703;DHT22;12030;50.376;8.762;2022-12-26T13:27:30;11.80;99.90
23703;DHT22;12030;50.376;8.762;2022-12-26T13:29:57;11.80;99.90
23703;DHT22;12030;50.376;8.762;2022-12-26T13:32:25;11.80;99.90
23703;DHT22;12030;50.376;8.762;2022-12-26T13:34:54;11.80;99.90
23703;DHT22;12030;50.376;8.762;2022-12-26T13:42:37;11.80;99.90
23703;DHT22;12030;50.376;8.762;2022-12-26T13:45:55;11.80;99.90
23703;DHT22;12030;50.376;8.762;2022-12-26T13:50:56;11.70;99.90
23703;DHT22;12030;50.376;8.762;2022-12-26T14:01:19;11.60;99.90
23703;DHT22;12030;50.376;8.762;2022-12-26T14:03:56;11.70;99.90
23703;DHT22;12030;50.376;8.762;2022-12-26T14:06:42;11.60;99.90
23703;DHT22;12030;50.376;8.762;2022-12-26T14:31:30;11.40;99.90
23703;DHT22;12030;50.376;8.762;2022-12-26T14:37:29;11.40;99.90
23703;DHT22;12030;50.376;8.762;2022-12-26T14:45:39;11.40;99.90
23703;DHT22;12030;50.376;8.762;2022-12-26T14:50:54;11.40;99.90
23703;DHT22;12030;50.376;8.762;2022-12-26T14:56:37;11.30;99.90
23703;DHT22;12030;50.376;8.762;2022-12-26T15:15:09;11.20;99.90
23703;DHT22;12030;50.376;8.762;2022-12-26T15:26:04;11.10;99.90
23703;DHT22;12030;50.376;8.762;2022-12-26T15:28:56;11.10;99.90
23703;DHT22;12030;50.376;8.762;2022-12-26T15:31:31;11.10;99.90
23703;DHT22;12030;50.376;8.762;2022-12-26T15:34:17;11.10;99.90
23703;DHT22;12030;50.376;8.762;2022-12-26T15:42:33;11.10;99.90
23703;DHT22;12030;50.376;8.762;2022-12-26T15:50:26;11.10;99.90
23703;DHT22;12030;50.376;8.762;2022-12-26T15:53:07;11.10;99.90
23703;DHT22;12030;50.376;8.762;2022-12-26T16:00:57;11.10;99.90
23703;DHT22;12030;50.376;8.762;2022-12-26T16:03:49;11.10;99.90
23703;DHT22;12030;50.376;8.762;2022-12-26T16:09:30;11.00;99.90
23703;DHT22;12030;50.376;8.762;2022-12-26T16:11:59;11.00;99.90
23703;DHT22;12030;50.376;8.762;2022-12-26T16:14:32;11.00;99.90
23703;DHT22;12030;50.376;8.762;2022-12-26T16:19:45;11.00;99.90
23703;DHT22;12030;50.376;8.762;2022-12-26T16:22:31;11.00;99.90
23703;DHT22;12030;50.376;8.762;2022-12-26T16:25:21;10.90;99.90
23703;DHT22;12030;50.376;8.762;2022-12-26T16:27:50;10.80;99.90
23703;DHT22;12030;50.376;8.762;2022-12-26T16:30:21;10.80;99.90
23703;DHT22;12030;50.376;8.762;2022-12-26T16:32:48;10.80;99.90
23703;DHT22;12030;50.376;8.762;2022-12-26T16:35:17;10.80;99.90
23703;DHT22;12030;50.376;8.762;2022-12-26T16:37:43;10.90;99.90
23703;DHT22;12030;50.376;8.762;2022-12-26T16:42:54;10.80;99.90
23703;DHT22;12030;50.376;8.762;2022-12-26T16:45:20;10.30;99.90
23703;DHT22;12030;50.376;8.762;2022-12-26T16:47:47;9.90;99.90
23703;DHT22;12030;50.376;8.762;2022-12-26T16:50:16;9.70;99.90
23703;DHT22;12030;50.376;8.762;2022-12-26T16:52:42;9.40;99.90
23703;DHT22;12030;50.376;8.762;2022-12-26T16:57:57;9.00;99.90
23703;DHT22;12030;50.376;8.762;2022-12-26T17:00:24;8.90;99.90
23703;DHT22;12030;50.376;8.762;2022-12-26T17:02:55;8.80;99.90
23703;DHT22;12030;50.376;8.762;2022-12-26T17:05:30;8.70;99.90
23703;DHT22;12030;50.376;8.762;2022-12-26T17:07:59;8.70;99.90
23703;DHT22;12030;50.376;8.762;2022-12-26T17:10:36;8.60;99.90
23703;DHT22;12030;50.376;8.762;2022-12-26T17:13:05;8.60;99.90
23703;DHT22;12030;50.376;8.762;2022-12-26T17:15:37;8.50;99.90
23703;DHT22;12030;50.376;8.762;2022-12-26T17:18:39;8.40;99.90
23703;DHT22;12030;50.376;8.762;2022-12-26T17:24:22;8.40;99.90
23703;DHT22;12030;50.376;8.762;2022-12-26T17:26:51;8.40;99.90
23703;DHT22;12030;50.376;8.762;2022-12-26T17:32:06;8.40;99.90
23703;DHT22;12030;50.376;8.762;2022-12-26T17:34:36;8.40;99.90
23703;DHT22;12030;50.376;8.762;2022-12-26T17:37:03;8.40;99.90
23703;DHT22;12030;50.376;8.762;2022-12-26T17:39:29;8.40;99.90
23703;DHT22;12030;50.376;8.762;2022-12-26T17:41:59;8.40;99.90
23703;DHT22;12030;50.376;8.762;2022-12-26T17:44:41;8.40;99.90
23703;DHT22;12030;50.376;8.762;2022-12-26T17:47:22;8.40;99.90
23703;DHT22;12030;50.376;8.762;2022-12-26T17:49:49;8.40;99.90
23703;DHT22;12030;50.376;8.762;2022-12-26T17:52:18;8.50;99.90
23703;DHT22;12030;50.376;8.762;2022-12-26T17:54:44;8.50;99.90
23703;DHT22;12030;50.376;8.762;2022-12-26T17:57:16;8.50;99.90
23703;DHT22;12030;50.376;8.762;2022-12-26T17:59:42;8.50;99.90
23703;DHT22;12030;50.376;8.762;2022-12-26T18:02:09;8.50;99.90
23703;DHT22;12030;50.376;8.762;2022-12-26T18:04:35;8.50;99.90
23703;DHT22;12030;50.376;8.762;2022-12-26T18:07:01;8.50;99.90
23703;DHT22;12030;50.376;8.762;2022-12-26T18:09:27;8.50;99.90
23703;DHT22;12030;50.376;8.762;2022-12-26T18:11:53;8.50;99.90
23703;DHT22;12030;50.376;8.762;2022-12-26T18:14:19;8.50;99.90
23703;DHT22;12030;50.376;8.762;2022-12-26T18:16:47;8.50;99.90
23703;DHT22;12030;50.376;8.762;2022-12-26T18:19:15;8.50;99.90
23703;DHT22;12030;50.376;8.762;2022-12-26T18:21:41;8.50;99.90
23703;DHT22;12030;50.376;8.762;2022-12-26T18:24:07;8.50;99.90
23703;DHT22;12030;50.376;8.762;2022-12-26T18:26:33;8.50;99.90
23703;DHT22;12030;50.376;8.762;2022-12-26T18:28:59;8.50;99.90
23703;DHT22;12030;50.376;8.762;2022-12-26T18:31:25;8.50;99.90
23703;DHT22;12030;50.376;8.762;2022-12-26T18:33:52;8.50;99.90
23703;DHT22;12030;50.376;8.762;2022-12-26T18:36:18;8.50;99.90
23703;DHT22;12030;50.376;8.762;2022-12-26T18:38:44;8.50;99.90
23703;DHT22;12030;50.376;8.762;2022-12-26T18:41:17;8.50;99.90
23703;DHT22;12030;50.376;8.762;2022-12-26T18:43:43;8.50;99.90
23703;DHT22;12030;50.376;8.762;2022-12-26T18:46:16;8.50;99.90
23703;DHT22;12030;50.376;8.762;2022-12-26T18:48:42;8.50;99.90
23703;DHT22;12030;50.376;8.762;2022-12-26T18:51:08;8.40;99.90
23703;DHT22;12030;50.376;8.762;2022-12-26T18:53:34;8.40;99.90
23703;DHT22;12030;50.376;8.762;2022-12-26T18:55:59;8.40;99.90
23703;DHT22;12030;50.376;8.762;2022-12-26T18:58:25;8.40;99.90
23703;DHT22;12030;50.376;8.762;2022-12-26T19:00:50;8.40;99.90
23703;DHT22;12030;50.376;8.762;2022-12-26T19:03:16;8.40;99.90
23703;DHT22;12030;50.376;8.762;2022-12-26T19:05:41;8.30;99.90
23703;DHT22;12030;50.376;8.762;2022-12-26T19:08:07;8.30;99.90
23703;DHT22;12030;50.376;8.762;2022-12-26T19:10:34;8.20;99.90
23703;DHT22;12030;50.376;8.762;2022-12-26T19:13:00;8.20;99.90
23703;DHT22;12030;50.376;8.762;2022-12-26T19:15:30;8.10;99.90
23703;DHT22;12030;50.376;8.762;2022-12-26T19:17:56;8.10;99.90
23703;DHT22;12030;50.376;8.762;2022-12-26T19:20:24;8.00;99.90
23703;DHT22;12030;50.376;8.762;2022-12-26T19:22:51;8.00;99.90
23703;DHT22;12030;50.376;8.762;2022-12-26T19:25:18;7.90;99.90
23703;DHT22;12030;50.376;8.762;2022-12-26T19:27:44;7.90;99.90
23703;DHT22;12030;50.376;8.762;2022-12-26T19:30:11;7.80;99.90
23703;DHT22;12030;50.376;8.762;2022-12-26T19:32:37;7.80;99.90
23703;DHT22;12030;50.376;8.762;2022-12-26T19:35:03;7.70;99.90
23703;DHT22;12030;50.376;8.762;2022-12-26T19:37:29;7.70;99.90